This is the latest recevied weather packets stored in our database for station/object WV8BRW. If no packets are shown the sender has not sent any weather packets the latest 10 day(s).
| Time | Temp. | Humidity | Pressure | Rain* | Wind** | Luminosity | Snow |
|---|---|---|---|---|---|---|---|
| 1777939028 | 21.67° C | 59% | 1006.6 hPa | 0 mm | - | 14 W/m² | - |
| 1777938724 | 22.22° C | 55% | 1006.4 hPa | 0 mm | - | 13 W/m² | - |
| 1777938422 | 22.22° C | 55% | 1006.6 hPa | 0 mm | - | 14 W/m² | - |
| 1777938119 | 22.22° C | 56% | 1006.7 hPa | 0 mm | - | 18 W/m² | - |
| 1777937815 | 22.78° C | 55% | 1006.7 hPa | 0 mm | - | 21 W/m² | - |
| 1777937511 | 22.78° C | 56% | 1006.6 hPa | 0 mm | - | 28 W/m² | - |
| 1777937209 | 22.78° C | 58% | 1006.4 hPa | 0 mm | - | 50 W/m² | - |
| 1777936905 | 22.78° C | 63% | 1006.5 hPa | 0 mm | - | 46 W/m² | - |
| 1777936602 | 23.33° C | 56% | 1006.5 hPa | 0 mm | - | 42 W/m² | - |
| 1777936298 | 23.33° C | 59% | 1006.5 hPa | 0 mm | - | 46 W/m² | - |
| 1777935995 | 23.89° C | 60% | 1006.4 hPa | 0 mm | - | 57 W/m² | - |
| 1777935694 | 24.44° C | 56% | 1006.5 hPa | 0 mm | - | 64 W/m² | - |
| 1777935392 | 24.44° C | 55% | 1006.5 hPa | 0 mm | - | 81 W/m² | - |
| 1777935087 | 24.44° C | 55% | 1006.4 hPa | 0 mm | - | 94 W/m² | - |
| 1777934784 | 24.44° C | 55% | 1006.7 hPa | 0 mm | - | 119 W/m² | - |
| 1777934481 | 24.44° C | 56% | 1006.6 hPa | 0 mm | - | 131 W/m² | - |
| 1777934178 | 24.44° C | 56% | 1006.8 hPa | 0 mm | - | 134 W/m² | - |
| 1777933874 | 24.44° C | 56% | 1006.8 hPa | 0 mm | - | 134 W/m² | - |
| 1777933571 | 24.44° C | 55% | 1006.7 hPa | 0 mm | - | 177 W/m² | - |
| 1777933268 | 24.44° C | 54% | 1006.9 hPa | 0 mm | - | 190 W/m² | - |
| 1777932965 | 23.89° C | 56% | 1006.9 hPa | 0 mm | - | 210 W/m² | - |
| 1777932662 | 23.89° C | 56% | 1007 hPa | 0 mm | - | 162 W/m² | - |
| 1777932358 | 24.44° C | 61% | 1006.9 hPa | 0 mm | - | 117 W/m² | - |
| 1777932056 | 25° C | 52% | 1006.9 hPa | 0 mm | - | 237 W/m² | - |
| 1777931752 | 25° C | 53% | 1007.2 hPa | 0 mm | - | 192 W/m² | - |
* Rain latest hour (hover to see other rain measurements)
** Current wind speed in m/s (hover to see current wind gust speed)